Fairpartner — PHEC — position and weather

sailwx.info

Track history (hours):
 
Tides and Currents Weather Stations Pressure Air Temp Water Temp Dewpoint Dewpoint Depression Visibility Wind Speed Wind Dir Waves Ship Positions

Fairpartner

Last reported at 2014-Dec-21 00:00 UTC. Time now 2014-Dec-22 11:20 UTC.
Position N 08°24' E 076°18'.

Length 143 m; beam 27 m.

Type: Cargo ship. MMSI: 246466992.

Wind from 070 at 5 knots

Waves 0.5 meters (2 feet), 1 second period

Barometer 1009.2 mb
Air temperature 26.0 ° C
Visibility: greater than 10.8 NM
Dewpoint 20.2 ° C
Water temperature 28.0 ° C

Date/timePositionNaut miles runAvg speedWind from/ knotsBaromVisibWave heightAir tempDewpointWater temp
2014-Dec-21 00:00N 08°24' E 076°18'16513.8 070 / 51009.210.8 0.526.020.228.0
2014-Dec-20 12:00N 06°36' E 078°24'34814.5 030 / 281008.2 2.2 3.526.423.128.4
2014-Dec-19 12:00N 05°54' E 084°12'   080 / 15 10.8 1.526.823.829.2
2014-Dec-16 07:27N 02°02' E 102°11'1314.6
2014-Dec-16 06:33N 01°54' E 102°22'1515.0
2014-Dec-16 05:33N 01°48' E 102°36'7715.3
2014-Dec-16 00:31N 01°10' E 103°42'1213.0
2014-Dec-15 23:34N 01°14' E 103°54'2 1.6
2014-Dec-15 22:29N 01°15' E 103°53'0 0.0
2014-Dec-15 21:29N 01°15' E 103°53'0 0.0
2014-Dec-15 20:29N 01°15' E 103°53'0 0.0
2014-Dec-15 19:32N 01°15' E 103°53'0 0.0
2014-Dec-15 18:32N 01°15' E 103°53'0 0.0
2014-Dec-15 17:32N 01°15' E 103°53'0 0.0
2014-Dec-15 16:32N 01°15' E 103°53'0 0.0
2014-Dec-15 15:17N 01°15' E 103°53'0 0.0
2014-Dec-15 14:29N 01°15' E 103°53'0 0.0
2014-Dec-15 13:32N 01°15' E 103°53'0 0.0
2014-Dec-15 12:29N 01°15' E 103°53'0 0.0
2014-Dec-15 11:32N 01°15' E 103°53'0 0.0
2014-Dec-15 10:32N 01°15' E 103°53'0 0.0
2014-Dec-15 09:32N 01°15' E 103°53'0 0.0
2014-Dec-15 08:32N 01°15' E 103°53'0 0.0
2014-Dec-15 07:29N 01°15' E 103°53'0 0.0
2014-Dec-15 06:26N 01°15' E 103°53'0 0.0
2014-Dec-15 05:23N 01°15' E 103°53'0 0.0
2014-Dec-15 03:29N 01°15' E 103°53'0 0.0
2014-Dec-15 02:32N 01°15' E 103°53'0 0.0
2014-Dec-15 01:29N 01°15' E 103°53'0 0.0
2014-Dec-15 00:29N 01°15' E 103°53'2 1.9
2014-Dec-14 23:32N 01°13' E 103°53'8 7.3
2014-Dec-14 22:26N 01°16' E 104°01'19 9.9
2014-Dec-14 20:32N 01°19' E 104°19'  
Track history (hours):
 
Tides and Currents Weather Stations Pressure Air Temp Water Temp Dewpoint Dewpoint Depression Visibility Wind Speed Wind Dir Waves Ship Positions

Fairpartner

Last reported at 2014-Dec-21 00:00 UTC. Time now 2014-Dec-22 11:20 UTC.
Position N 08°24' E 076°18'.

Length 143 m; beam 27 m.

Type: Cargo ship. MMSI: 246466992.

Wind from 070 at 5 knots

Waves 0.5 meters (2 feet), 1 second period

Barometer 1009.2 mb
Air temperature 26.0 ° C
Visibility: greater than 10.8 NM
Dewpoint 20.2 ° C
Water temperature 28.0 ° C

Date/timePositionNaut miles runAvg speedWind from/ knotsBaromVisibWave heightAir tempDewpointWater temp
2014-Dec-21 00:00N 08°24' E 076°18'16513.8 070 / 51009.210.8 0.526.020.228.0
2014-Dec-20 12:00N 06°36' E 078°24'34814.5 030 / 281008.2 2.2 3.526.423.128.4
2014-Dec-19 12:00N 05°54' E 084°12'   080 / 15 10.8 1.526.823.829.2
2014-Dec-16 07:27N 02°02' E 102°11'1314.6
2014-Dec-16 06:33N 01°54' E 102°22'1515.0
2014-Dec-16 05:33N 01°48' E 102°36'7715.3
2014-Dec-16 00:31N 01°10' E 103°42'1213.0
2014-Dec-15 23:34N 01°14' E 103°54'2 1.6
2014-Dec-15 22:29N 01°15' E 103°53'0 0.0
2014-Dec-15 21:29N 01°15' E 103°53'0 0.0
2014-Dec-15 20:29N 01°15' E 103°53'0 0.0
2014-Dec-15 19:32N 01°15' E 103°53'0 0.0
2014-Dec-15 18:32N 01°15' E 103°53'0 0.0
2014-Dec-15 17:32N 01°15' E 103°53'0 0.0
2014-Dec-15 16:32N 01°15' E 103°53'0 0.0
2014-Dec-15 15:17N 01°15' E 103°53'0 0.0
2014-Dec-15 14:29N 01°15' E 103°53'0 0.0
2014-Dec-15 13:32N 01°15' E 103°53'0 0.0
2014-Dec-15 12:29N 01°15' E 103°53'0 0.0
2014-Dec-15 11:32N 01°15' E 103°53'0 0.0
2014-Dec-15 10:32N 01°15' E 103°53'0 0.0
2014-Dec-15 09:32N 01°15' E 103°53'0 0.0
2014-Dec-15 08:32N 01°15' E 103°53'0 0.0
2014-Dec-15 07:29N 01°15' E 103°53'0 0.0
2014-Dec-15 06:26N 01°15' E 103°53'0 0.0
2014-Dec-15 05:23N 01°15' E 103°53'0 0.0
2014-Dec-15 03:29N 01°15' E 103°53'0 0.0
2014-Dec-15 02:32N 01°15' E 103°53'0 0.0
2014-Dec-15 01:29N 01°15' E 103°53'0 0.0
2014-Dec-15 00:29N 01°15' E 103°53'2 1.9
2014-Dec-14 23:32N 01°13' E 103°53'8 7.3
2014-Dec-14 22:26N 01°16' E 104°01'19 9.9
2014-Dec-14 20:32N 01°19' E 104°19'  

Dump ship's entire track history